Latest Weather Observations for Gold Coast Seaway

IDQ60901

Issued at 4:25 pm EST Thursday 21 August 2014 (issued every 10 minutes, with the page automatically refreshed every 10 minutes)

About weather observations | Map of Brisbane area stations | Latest observations for Brisbane area | Other Formats
Station Details ID: 040764 Name: GOLD COAST SEAWAY Lat: -27.94 Lon: 153.43 Height: 2.98 m
Data from the previous 72 hours. | See also: Recent months at Gold Coast Seaway
Date/Time
EST
Tmp

°C
App
Tmp
°C
Dew
Point
°C
Rel
Hum
%
Delta-T

°C
Wind Press
QNH
hPa
Press
MSL
hPa
Rain
since
9 am
mm
Dir
 
Spd
km/h
Gust
km/h
Spd
kts
Gust
kts
21/04:00pm 18.9 13.3 13.3 70 3.2 S 35 44 19 24 1021.9 1021.9 0.0
21/03:30pm 18.0 10.6 12.5 70 3.1 S 43 56 23 30 1021.8 1021.8 0.0
21/03:00pm 19.1 12.4 13.3 69 3.3 SSE 41 52 22 28 1021.4 1021.4 0.0
21/02:30pm 20.0 11.3 11.2 57 4.8 SSE 48 57 26 31 1021.4 1021.4 0.0
21/02:00pm 20.2 11.8 12.4 61 4.4 SSE 48 57 26 31 1021.5 1021.5 0.0
21/01:30pm 19.5 10.6 13.0 66 3.7 SSE 52 65 28 35 1021.5 1021.5 0.0
21/01:11pm 20.4 12.7 13.4 64 4.0 SSE 46 67 25 36 1021.4 1021.4 0.0
21/01:00pm 20.5 12.0 12.0 58 4.7 SSE 48 57 26 31 1021.5 1021.5 0.0
21/12:43pm 20.5 12.1 11.2 55 5.1 SSE 46 65 25 35 1021.7 1021.7 0.0
21/12:30pm 21.0 13.1 12.7 59 4.7 S 46 59 25 32 1021.8 1021.8 0.0
21/12:00pm 20.6 12.7 11.5 56 5.0 S 44 57 24 31 1022.3 1022.3 0.0
21/11:30am 20.5 12.2 11.4 56 5.0 S 46 56 25 30 1022.5 1022.5 0.0
21/11:00am 20.6 13.1 12.1 58 4.7 S 43 54 23 29 1022.9 1022.9 0.0
21/10:30am 20.1 12.3 11.3 57 4.8 S 43 56 23 30 1023.2 1023.2 0.0
21/10:00am 19.2 12.4 10.7 58 4.6 S 37 48 20 26 1023.4 1023.4 0.0
21/09:30am 18.5 9.1 10.3 59 4.4 S 50 59 27 32 1023.4 1023.4 0.0
21/09:00am 18.4 11.2 10.5 60 4.2 S 39 50 21 27 1023.3 1023.3 0.0
21/08:30am 17.6 10.2 9.8 60 4.1 S 39 52 21 28 1023.1 1023.1 0.0
21/08:00am 16.9 10.6 9.6 62 3.8 S 33 41 18 22 1023.0 1023.0 0.0
21/07:30am 16.2 9.9 9.6 65 3.4 S 33 48 18 26 1022.8 1022.8 0.0
21/07:00am 15.4 9.3 9.7 69 2.9 S 32 41 17 22 1022.6 1022.6 0.0
21/06:30am 14.8 8.8 10.0 73 2.5 S 32 43 17 23 1022.3 1022.3 0.0
21/06:00am 14.5 9.2 9.9 74 2.4 S 28 39 15 21 1022.1 1022.1 0.0
21/05:30am 14.6 9.3 10.0 74 2.4 S 28 35 15 19 1021.8 1021.8 0.0
21/05:00am 15.0 9.4 10.2 73 2.5 S 30 39 16 21 1021.6 1021.6 0.0
21/04:30am 15.2 9.7 10.4 73 2.5 S 30 41 16 22 1021.4 1021.4 0.0
21/04:00am 15.2 10.8 10.4 73 2.5 S 24 33 13 18 1021.4 1021.4 0.0
21/03:30am 15.3 10.6 10.5 73 2.5 S 26 39 14 21 1021.2 1021.2 0.0
21/03:00am 15.5 9.6 10.5 72 2.6 S 32 39 17 21 1021.3 1021.3 0.0
21/02:30am 15.5 10.8 10.7 73 2.5 S 26 35 14 19 1021.2 1021.2 0.0
21/02:00am 15.7 10.3 10.9 73 2.5 S 30 41 16 22 1021.3 1021.3 0.0
21/01:30am 15.9 10.5 10.9 72 2.7 S 30 41 16 22 1021.4 1021.4 0.0
21/01:00am 15.7 11.4 10.7 72 2.6 S 24 30 13 16 1021.8 1021.8 0.0
21/12:30am 15.9 11.7 11.1 73 2.6 S 24 30 13 16 1021.9 1021.9 0.0
21/12:00am 15.8 12.3 11.0 73 2.6 S 20 32 11 17 1022.0 1022.0 0.0
 
Date/Time
EST
Tmp

°C
App
Tmp
°C
Dew
Point
°C
Rel
Hum
%
Delta-T

°C
Wind Press
QNH
hPa
Press
MSL
hPa
Rain
since
9 am
mm
Dir
 
Spd
km/h
Gust
km/h
Spd
kts
Gust
kts
20/11:30pm 16.0 11.0 11.0 72 2.7 S 28 37 15 20 1022.0 1022.0 0.0
20/11:00pm 16.4 11.5 11.3 72 2.7 S 28 37 15 20 1022.1 1022.1 0.0
20/10:30pm 16.4 11.4 11.1 71 2.8 S 28 37 15 20 1022.1 1022.1 0.0
20/10:00pm 16.4 11.1 11.1 71 2.8 S 30 44 16 24 1022.1 1022.1 0.0
20/09:30pm 16.5 11.2 11.4 72 2.8 S 30 39 16 21 1022.1 1022.1 0.0
20/09:00pm 16.9 11.2 11.8 72 2.8 S 33 41 18 22 1021.9 1021.9 0.0
20/08:30pm 16.7 11.4 11.2 70 3.0 S 30 50 16 27 1022.1 1022.1 0.0
20/08:28pm 16.6 11.2 10.9 69 3.0 S 30 50 16 27 1022.1 1022.1 0.0
20/08:00pm 16.8 10.1 11.1 69 3.1 S 37 48 20 26 1021.9 1021.9 0.0
20/07:30pm 16.9 10.9 10.7 67 3.3 S 33 41 18 22 1021.4 1021.4 0.0
20/07:00pm 17.3 11.3 10.9 66 3.4 S 33 43 18 23 1021.2 1021.2 0.0
20/06:30pm 17.6 11.3 10.9 65 3.6 S 35 43 19 23 1020.8 1020.8 0.0
20/06:00pm 18.0 10.4 11.8 67 3.4 S 43 54 23 29 1020.3 1020.3 0.0
20/05:30pm 18.2 9.7 10.8 62 4.0 S 46 56 25 30 1019.8 1019.8 0.0
20/05:00pm 18.6 10.1 10.7 60 4.2 S 46 56 25 30 1019.1 1019.1 0.0
20/04:30pm 19.2 11.5 12.2 64 3.9 SSE 44 54 24 29 1018.8 1018.8 0.0
20/04:00pm 19.9 13.0 11.7 59 4.5 SSE 39 48 21 26 1018.7 1018.7 0.0
20/03:30pm 20.3 12.6 11.5 57 4.9 SSE 43 54 23 29 1018.5 1018.5 0.0
20/03:00pm 20.5 13.6 11.7 57 4.9 SSE 39 48 21 26 1018.3 1018.3 0.0
20/02:30pm 21.2 14.8 10.7 51 5.7 SSE 35 43 19 23 1018.2 1018.2 0.0
20/02:00pm 21.2 14.6 11.5 54 5.4 SSE 37 48 20 26 1018.1 1018.1 0.0
20/01:30pm 21.4 14.5 10.3 49 6.0 SSE 37 46 20 25 1018.3 1018.3 0.0
20/01:00pm 22.0 16.0 10.8 49 6.2 SSE 33 37 18 20 1018.3 1018.3 0.0
20/12:30pm 22.0 16.0 8.5 42 7.1 S 30 39 16 21 1018.5 1018.5 0.0
20/12:00pm 21.4 15.6 9.3 46 6.4 SSE 30 35 16 19 1018.9 1018.9 0.0
20/11:30am 21.2 15.0 9.4 47 6.3 SSE 32 37 17 20 1019.4 1019.4 0.0
20/11:00am 20.9 14.7 7.9 43 6.7 SSE 30 37 16 20 1019.7 1019.7 0.0
20/10:30am 21.1 14.8 9.0 46 6.4 S 32 39 17 21 1019.8 1019.8 0.0
20/10:00am 20.3 14.3 8.6 47 6.1 S 30 43 16 23 1019.9 1019.9 0.0
20/09:30am 19.8 14.6 7.2 44 6.4 S 24 32 13 17 1019.8 1019.8 0.0
20/09:00am 19.1 15.7 7.5 47 5.9 SSW 15 20 8 11 1019.8 1019.8 0.0
20/08:30am 18.1 15.5 7.8 51 5.2 SSW 11 15 6 8 1019.7 1019.7 0.0
20/08:00am 16.9 15.2 8.3 57 4.4 SW 7 15 4 8 1019.7 1019.7 0.0
20/07:30am 15.6 13.8 7.9 60 3.9 SW 7 7 4 4 1019.6 1019.6 0.0
20/07:00am 14.1 11.9 7.9 66 3.1 SW 9 11 5 6 1018.9 1018.9 0.0
20/06:30am 13.6 11.3 7.6 67 2.9 SW 9 11 5 6 1018.5 1018.5 0.0
20/06:00am 13.9 11.3 7.9 67 3.0 W 11 15 6 8 1018.0 1018.0 0.0
20/05:30am 13.7 11.2 8.1 69 2.8 SSW 11 17 6 9 1017.8 1017.8 0.0
20/05:00am 13.9 10.6 7.9 67 3.0 SSW 15 20 8 11 1017.4 1017.4 0.0
20/04:30am 13.0 10.7 8.9 76 2.1 SW 11 13 6 7 1017.3 1017.3 0.0
20/04:00am 12.2 10.4 9.6 84 1.3 SSW 9 11 5 6 1017.1 1017.1 0.0
20/03:30am 12.4 10.3 9.8 84 1.3 SW 11 11 6 6 1016.9 1016.9 0.0
20/03:00am 12.8 10.7 9.6 81 1.6 SW 11 11 6 6 1016.7 1016.7 0.0
20/02:30am 12.3 10.8 9.0 80 1.7 W 7 9 4 5 1016.5 1016.5 0.0
20/02:00am 12.9 11.1 9.5 80 1.7 W 9 11 5 6 1016.5 1016.5 0.0
20/01:30am 13.3 11.6 9.7 79 1.8 W 9 11 5 6 1016.5 1016.5 0.0
20/01:00am 13.4 12.0 9.5 77 2.0 W 7 9 4 5 1016.6 1016.6 0.0
20/12:30am 13.6 11.8 9.5 76 2.1 SW 9 11 5 6 1016.4 1016.4 0.0
20/12:00am 13.8 12.1 9.8 77 2.1 WSW 9 11 5 6 1016.2 1016.2 0.0
 
Date/Time
EST
Tmp

°C
App
Tmp
°C
Dew
Point
°C
Rel
Hum
%
Delta-T

°C
Wind Press
QNH
hPa
Press
MSL
hPa
Rain
since
9 am
mm
Dir
 
Spd
km/h
Gust
km/h
Spd
kts
Gust
kts
19/11:30pm 15.0 12.9 9.8 71 2.7 W 11 15 6 8 1016.1 1016.1 0.0
19/11:00pm 14.4 12.8 10.2 76 2.2 WSW 9 11 5 6 1016.2 1016.2 0.0
19/10:30pm 14.1 12.7 9.5 74 2.4 W 7 9 4 5 1016.0 1016.0 0.0
19/10:00pm 14.9 13.2 9.7 71 2.7 WSW 9 11 5 6 1015.8 1015.8 0.0
19/09:30pm 15.6 14.7 9.1 65 3.3 SSW 4 7 2 4 1015.8 1015.8 0.0
19/09:00pm 16.6 15.1 9.3 62 3.8 SW 7 13 4 7 1015.3 1015.3 0.0
19/08:30pm 17.3 14.7 9.2 59 4.2 SW 13 19 7 10 1015.3 1015.3 0.0
19/08:00pm 17.7 12.3 9.6 59 4.3 S 28 37 15 20 1015.3 1015.3 0.0
19/07:30pm 17.9 13.0 10.0 60 4.2 S 26 35 14 19 1014.9 1014.9 0.0
19/07:00pm 18.5 13.3 11.6 64 3.8 S 30 37 16 20 1014.5 1014.5 0.0
19/06:30pm 18.8 13.1 11.1 61 4.2 S 32 41 17 22 1013.8 1013.8 0.0
19/06:20pm 18.9 14.3 12.4 66 3.6 SSE 28 41 15 22 1013.7 1013.7 0.0
19/06:00pm 18.9 17.4 10.7 59 4.4 E 9 11 5 6 1013.1 1013.1 0.0
19/05:30pm 19.4 18.1 11.4 60 4.4 E 9 13 5 7 1012.4 1012.4 0.0
19/05:00pm 20.2 18.3 11.7 58 4.7 ENE 13 15 7 8 1011.8 1011.8 0.0
19/04:30pm 20.5 17.2 11.7 57 4.9 E 20 24 11 13 1011.2 1011.2 0.0
19/04:00pm 20.0 16.8 11.2 57 4.8 E 19 22 10 12 1010.9 1010.9 0.0
19/03:30pm 20.4 17.1 11.6 57 4.9 ESE 20 24 11 13 1010.6 1010.6 0.0
19/03:00pm 20.9 16.3 9.8 49 6.0 ESE 24 28 13 15 1010.3 1010.3 0.0
19/02:30pm 20.8 17.0 11.2 54 5.3 ESE 22 28 12 15 1010.1 1010.1 0.0
19/02:00pm 22.4 18.9 5.4 33 8.5 WSW 13 19 7 10 1009.9 1009.9 0.0
19/01:30pm 23.6 19.0 5.5 31 9.1 W 19 30 10 16 1010.0 1010.0 0.0
19/01:00pm 23.2 18.4 5.6 32 8.9 WSW 20 32 11 17 1010.2 1010.2 0.0
19/12:30pm 22.7 18.9 6.0 34 8.5 SW 15 24 8 13 1010.5 1010.5 0.0
19/12:00pm 22.4 17.6 5.8 34 8.4 W 20 28 11 15 1010.9 1010.9 0.0
19/11:30am 22.4 18.3 6.2 35 8.2 WSW 17 20 9 11 1011.3 1011.3 0.0
19/11:00am 21.6 15.1 6.3 37 7.7 WNW 30 41 16 22 1011.7 1011.7 0.0
19/10:30am 20.5 15.8 5.3 37 7.5 WSW 19 28 10 15 1012.2 1012.2 0.0
19/10:00am 20.5 14.7 6.4 40 7.1 W 26 33 14 18 1012.2 1012.2 0.0
19/09:30am 19.5 12.9 5.9 41 6.7 W 30 39 16 21 1012.5 1012.5 0.0
19/09:00am 19.1 14.5 5.6 41 6.6 W 19 28 10 15 1012.6 1012.6 0.0
19/08:30am 18.3 12.5 6.2 45 6.0 WNW 26 37 14 20 1012.5 1012.5 0.0
19/08:00am 17.6 12.2 6.5 48 5.5 WNW 24 32 13 17 1012.4 1012.4 0.0
19/07:30am 16.6 12.2 6.4 51 5.0 WNW 19 26 10 14 1012.2 1012.2 0.0
19/07:00am 15.9 11.4 6.9 55 4.4 WNW 20 30 11 16 1011.8 1011.8 0.0
19/06:30am 15.1 11.2 6.9 58 4.0 NW 17 19 9 10 1011.7 1011.7 0.0
19/06:00am 14.6 11.5 7.2 61 3.6 NW 13 17 7 9 1011.4 1011.4 0.0
19/05:30am 15.1 11.1 6.7 57 4.1 NW 17 20 9 11 1010.9 1010.9 0.0
19/05:00am 15.5 11.8 6.5 55 4.4 W 15 22 8 12 1010.9 1010.9 0.0
19/04:30am 15.4 12.1 6.4 55 4.4 WNW 13 19 7 10 1010.7 1010.7 0.0
19/04:00am 15.8 11.3 6.8 55 4.4 WNW 20 30 11 16 1009.9 1009.9 0.0
19/03:30am 16.0 10.7 7.0 55 4.4 W 24 33 13 18 1010.0 1010.0 0.0
19/03:00am 15.4 12.6 6.9 57 4.2 NW 11 20 6 11 1010.3 1010.3 0.0
19/02:30am 15.9 13.5 6.9 55 4.4 W 9 17 5 9 1010.6 1010.6 0.0
19/02:00am 16.0 11.5 7.0 55 4.4 WNW 20 26 11 14 1010.6 1010.6 0.0
19/01:30am 16.0 12.4 6.7 54 4.6 WNW 15 26 8 14 1010.9 1010.9 0.0
19/01:00am 14.8 11.7 7.1 60 3.8 N 13 17 7 9 1011.0 1011.0 0.0
19/12:30am 15.2 12.5 7.2 59 3.9 NNW 11 15 6 8 1011.4 1011.4 0.0
19/12:00am 15.8 12.3 7.0 56 4.3 WNW 15 26 8 14 1011.6 1011.6 0.0
 
Date/Time
EST
Tmp

°C
App
Tmp
°C
Dew
Point
°C
Rel
Hum
%
Delta-T

°C
Wind Press
QNH
hPa
Press
MSL
hPa
Rain
since
9 am
mm
Dir
 
Spd
km/h
Gust
km/h
Spd
kts
Gust
kts
18/11:30pm 16.2 12.2 6.6 53 4.7 W 17 26 9 14 1011.5 1011.5 0.0
18/11:00pm 16.1 12.9 6.8 54 4.6 WSW 13 22 7 12 1011.8 1011.8 0.0
18/10:30pm 16.0 11.1 7.0 55 4.4 WNW 22 28 12 15 1011.8 1011.8 0.0
18/10:00pm 16.3 10.7 7.0 54 4.6 WNW 26 32 14 17 1011.8 1011.8 0.0
18/09:30pm 16.5 11.2 6.6 52 4.9 WNW 24 30 13 16 1011.9 1011.9 0.0
18/09:00pm 16.4 11.9 6.8 53 4.7 WNW 20 33 11 18 1011.6 1011.6 0.0
18/08:30pm 16.8 9.3 6.3 50 5.1 WNW 35 43 19 23 1011.1 1011.1 0.0
18/08:00pm 16.9 10.0 6.4 50 5.2 WNW 32 41 17 22 1011.0 1011.0 0.0
18/07:30pm 17.1 9.6 6.3 49 5.3 WNW 35 50 19 27 1010.7 1010.7 0.0
18/07:22pm 17.3 11.1 6.2 48 5.4 WNW 28 46 15 25 1010.6 1010.6 0.0
18/07:00pm 17.3 12.7 6.5 49 5.3 NW 20 32 11 17 1010.5 1010.5 0.0
18/06:35pm 17.5 11.2 5.8 46 5.7 W 28 46 15 25 1009.9 1009.9 0.0
18/06:30pm 17.6 13.0 5.5 45 5.9 WNW 19 37 10 20 1009.9 1009.9 0.0
18/06:00pm 17.7 11.3 5.3 44 6.0 WNW 28 37 15 20 1009.1 1009.1 0.0
18/05:30pm 18.1 12.6 6.0 45 5.9 WNW 24 33 13 18 1009.0 1009.0 0.0
18/05:00pm 18.5 12.6 6.0 44 6.2 WNW 26 35 14 19 1008.5 1008.5 0.0
18/04:30pm 19.2 12.9 5.6 41 6.7 WNW 28 44 15 24 1008.3 1008.3 0.0

Latest Capital City Observations: Canberra | Sydney | Melbourne | Brisbane | Adelaide | Perth | Hobart | Darwin

Other Formats:

Comma delimited format used in spreadsheet applications
http://www.bom.gov.au/fwo/IDQ60901/IDQ60901.94580.axf

JavaScript Object Notation format (JSON) in row-major order
http://www.bom.gov.au/fwo/IDQ60901/IDQ60901.94580.json